Ana Sayfa
METAR-TAF:

METAR-TAF

Havaalanları :

Weatherford, Oklahoma, Amerika Birleşik Devletleri

Enlem: 35-32-45N, Boylam: 098-40-07W, yükseklik: 489 m

Güncel hava durumu gözlemi

Rapor saat 14:15 UTC de 12 dakika önce yapıldı.
Rüzgar güney/güneybatıdan 11 kt ve 17 kt'a kadar ani rüzgarlar
Sıcaklık 30°C
Nem 59%
Basınç 1013 hPa
Görüş mesafesi: 16.1 km
Açık gökyüzü

METAR: KOJA 251415Z AUTO 20011G17KT 10SM CLR 30/21 A2990 RMK AO2 T03040211

Saat: 09:27 (14:27 UTC)


TAF: eksik

4.000'den fazla havaalanı için hava durumu gözlemleri ve tahminleri (METAR ve TAF raporları).

Kullanılabilir istasyonlar harita üzerinde sarı ve kırmızı noktalarla gösterilir.

İstasyonun adını görmek için fareyi noktanın üzerinde gezdirin.

Sonrasında hava gözlem ve tahminlerini görmek için tıklayın.

Haritayı değiştirmek için: yaklaştırmak için siyah artı işaretli yeşil düğmeye ve uzaklaştırmak için de eksi işaretli düğmeye hızla tıklayın; bitişik haritalar için yeşil okları kullanın.


METAR-TAF: